Time;durP1;ratioP1;P1;durP2;ratioP2;P2;SDS_P1;SDS_P2;PMS_P1;PMS_P2;Temp;Humidity;BMP_temperature;BMP_pressure;BME280_temperature;BME280_humidity;BME280_pressure;Samples;Min_cycle;Max_cycle;Signal;HPM_P1;HPM_P2
2024/02/20 00:01:50;;;;;;;10.73;3.05;;;;;;;;;;5062775;28;20045;-71
2024/02/20 00:04:17;;;;;;;6.35;2.95;;;;;;;;;;5063344;28;20494;-72
2024/02/20 00:06:44;;;;;;;19.98;3.63;;;;;;;;;;5067917;28;20024;-72
2024/02/20 00:09:10;;;;;;;11.60;2.55;;;;;;;;;;5071327;28;20120;-72
2024/02/20 00:11:36;;;;;;;7.15;3.00;;;;;;;;;;5064796;28;20025;-72
2024/02/20 00:14:03;;;;;;;7.35;3.38;;;;;;;;;;5057443;28;20036;-72
2024/02/20 00:16:30;;;;;;;6.97;2.35;;;;;;;;;;5058875;28;20269;-72
2024/02/20 00:18:56;;;;;;;5.45;2.72;;;;;;;;;;5058465;28;20020;-72
2024/02/20 00:21:24;;;;;;;5.78;2.65;;;;;;;;;;5059189;28;20021;-72
2024/02/20 00:23:51;;;;;;;9.35;3.10;;;;;;;;;;5058184;28;20115;-72
2024/02/20 00:26:18;;;;;;;17.75;3.35;;;;;;;;;;5059993;28;20024;-72
2024/02/20 00:28:45;;;;;;;8.63;2.78;;;;;;;;;;5065201;28;20108;-72
2024/02/20 00:31:11;;;;;;;13.45;3.25;;;;;;;;;;5057586;28;20024;-72
2024/02/20 00:33:37;;;;;;;7.15;2.55;;;;;;;;;;5062187;28;20033;-72
2024/02/20 00:36:05;;;;;;;7.28;3.05;;;;;;;;;;5060948;28;20033;-71
2024/02/20 00:38:32;;;;;;;3.92;3.38;;;;;;;;;;5065375;28;20031;-72
2024/02/20 00:40:58;;;;;;;7.75;3.10;;;;;;;;;;5057649;28;20028;-71
2024/02/20 00:43:24;;;;;;;9.88;3.00;;;;;;;;;;5057341;28;20372;-71
2024/02/20 00:45:51;;;;;;;4.40;2.30;;;;;;;;;;5057800;28;20041;-71
2024/02/20 00:48:17;;;;;;;19.98;3.55;;;;;;;;;;5063421;28;20024;-72
2024/02/20 00:50:43;;;;;;;8.52;3.33;;;;;;;;;;5060847;28;20029;-72
2024/02/20 00:53:09;;;;;;;13.13;3.20;;;;;;;;;;5059193;28;20499;-72
2024/02/20 00:55:36;;;;;;;12.70;3.72;;;;;;;;;;5072257;28;20438;-71
2024/02/20 00:58:03;;;;;;;17.88;3.80;;;;;;;;;;5061098;28;20029;-73
2024/02/20 01:00:29;;;;;;;6.68;2.63;;;;;;;;;;5068338;28;20127;-72
2024/02/20 01:02:58;;;;;;;12.13;4.15;;;;;;;;;;5056605;28;20025;-73
2024/02/20 01:05:24;;;;;;;8.60;3.67;;;;;;;;;;5061886;28;20059;-71
2024/02/20 01:07:50;;;;;;;5.38;2.70;;;;;;;;;;5067610;28;20435;-72
2024/02/20 01:10:17;;;;;;;12.07;3.63;;;;;;;;;;5065524;28;20031;-71
2024/02/20 01:12:43;;;;;;;9.73;3.28;;;;;;;;;;5060545;28;20095;-71
2024/02/20 01:15:10;;;;;;;20.45;4.15;;;;;;;;;;5046462;28;20123;-71
2024/02/20 01:17:36;;;;;;;16.20;3.40;;;;;;;;;;5065797;28;20060;-71
2024/02/20 01:20:04;;;;;;;13.80;3.95;;;;;;;;;;5063696;28;20432;-73
2024/02/20 01:22:30;;;;;;;13.60;3.38;;;;;;;;;;5065934;28;20421;-71
2024/02/20 01:24:56;;;;;;;3.92;2.83;;;;;;;;;;5056323;28;20555;-72
2024/02/20 01:27:23;;;;;;;10.63;3.75;;;;;;;;;;5064321;28;20021;-71
2024/02/20 01:29:49;;;;;;;14.63;4.10;;;;;;;;;;5055711;28;20037;-71
2024/02/20 01:32:15;;;;;;;6.90;3.33;;;;;;;;;;5064020;28;20062;-71
2024/02/20 01:34:41;;;;;;;10.43;3.60;;;;;;;;;;5056879;28;20040;-71
2024/02/20 01:37:08;;;;;;;17.90;3.83;;;;;;;;;;5055466;28;20487;-71
2024/02/20 01:39:34;;;;;;;13.23;2.97;;;;;;;;;;5061187;28;20020;-71
2024/02/20 01:42:01;;;;;;;10.90;2.88;;;;;;;;;;5063228;28;20040;-71
2024/02/20 01:44:32;;;;;;;6.55;2.95;;;;;;;;;;5052910;28;20016;-71
2024/02/20 01:46:59;;;;;;;22.48;4.45;;;;;;;;;;5064179;28;20020;-70
2024/02/20 01:49:25;;;;;;;12.82;4.25;;;;;;;;;;5059188;28;20494;-71
2024/02/20 01:51:52;;;;;;;13.52;2.65;;;;;;;;;;5054729;28;20111;-71
2024/02/20 01:54:19;;;;;;;8.50;2.92;;;;;;;;;;5042621;28;20056;-72
2024/02/20 01:56:45;;;;;;;3.97;3.13;;;;;;;;;;5057257;28;20031;-73
2024/02/20 01:59:12;;;;;;;8.25;3.67;;;;;;;;;;5060240;28;20059;-72
2024/02/20 02:01:38;;;;;;;8.68;2.70;;;;;;;;;;5063827;28;20101;-72
2024/02/20 02:04:04;;;;;;;9.00;3.33;;;;;;;;;;5060958;28;20090;-72
2024/02/20 02:06:31;;;;;;;8.40;4.35;;;;;;;;;;5063921;28;20037;-71
2024/02/20 02:08:57;;;;;;;13.68;3.33;;;;;;;;;;5062433;28;20059;-72
2024/02/20 02:11:24;;;;;;;12.40;3.70;;;;;;;;;;5057544;28;20131;-72
2024/02/20 02:13:50;;;;;;;7.00;3.47;;;;;;;;;;5065242;28;20025;-71
2024/02/20 02:16:16;;;;;;;8.90;2.67;;;;;;;;;;5058286;28;20033;-72
2024/02/20 02:18:42;;;;;;;12.88;3.65;;;;;;;;;;5058800;28;20047;-72
2024/02/20 02:21:08;;;;;;;7.47;3.15;;;;;;;;;;5058738;28;20060;-72
2024/02/20 02:23:34;;;;;;;11.18;3.72;;;;;;;;;;5052676;28;20061;-72
2024/02/20 02:26:01;;;;;;;7.15;3.00;;;;;;;;;;5052762;28;20488;-71
2024/02/20 02:28:27;;;;;;;10.60;3.13;;;;;;;;;;5058520;28;20028;-72
2024/02/20 02:30:53;;;;;;;14.63;3.40;;;;;;;;;;5054834;28;20304;-72
2024/02/20 02:33:20;;;;;;;14.00;3.75;;;;;;;;;;5066814;28;20184;-72
2024/02/20 02:35:46;;;;;;;6.70;3.13;;;;;;;;;;5059297;28;20441;-72
2024/02/20 02:38:15;;;;;;;15.98;3.78;;;;;;;;;;5060715;28;20036;-71
2024/02/20 02:40:42;;;;;;;12.90;3.63;;;;;;;;;;5059313;28;20387;-71
2024/02/20 02:43:08;;;;;;;13.73;3.63;;;;;;;;;;5068561;28;20511;-72
2024/02/20 02:45:35;;;;;;;4.93;3.28;;;;;;;;;;5063038;28;20086;-72
2024/02/20 02:48:03;;;;;;;8.50;2.97;;;;;;;;;;5057095;28;20434;-72
2024/02/20 02:50:29;;;;;;;8.85;3.10;;;;;;;;;;5064571;28;20032;-73
2024/02/20 02:52:56;;;;;;;6.30;3.45;;;;;;;;;;5050851;28;20035;-71
2024/02/20 02:55:25;;;;;;;6.60;2.70;;;;;;;;;;5065460;28;20024;-71
2024/02/20 02:57:51;;;;;;;4.80;2.50;;;;;;;;;;5062368;28;20029;-71
2024/02/20 03:00:17;;;;;;;13.07;2.92;;;;;;;;;;5061238;28;20475;-72
2024/02/20 03:02:44;;;;;;;3.58;2.45;;;;;;;;;;5064420;28;20044;-72
2024/02/20 03:05:10;;;;;;;3.88;2.20;;;;;;;;;;5059140;28;20486;-72
2024/02/20 03:07:36;;;;;;;6.20;2.67;;;;;;;;;;5059691;28;20082;-72
2024/02/20 03:10:02;;;;;;;10.10;2.55;;;;;;;;;;5057910;28;20113;-72
2024/02/20 03:12:29;;;;;;;7.55;2.85;;;;;;;;;;5056852;28;20036;-72
2024/02/20 03:14:56;;;;;;;7.30;2.65;;;;;;;;;;5062912;28;20108;-72
2024/02/20 03:17:22;;;;;;;9.48;3.03;;;;;;;;;;5060566;28;20032;-72
2024/02/20 03:19:49;;;;;;;3.85;3.17;;;;;;;;;;5062341;28;20449;-73
2024/02/20 03:22:15;;;;;;;5.20;2.50;;;;;;;;;;5063088;28;20124;-71
2024/02/20 03:24:43;;;;;;;7.95;2.63;;;;;;;;;;5069140;28;20103;-71
2024/02/20 03:27:10;;;;;;;3.65;2.50;;;;;;;;;;5067867;28;20043;-72
2024/02/20 03:29:37;;;;;;;7.13;2.33;;;;;;;;;;5062703;28;20488;-71
2024/02/20 03:32:03;;;;;;;9.88;2.80;;;;;;;;;;5063943;28;20029;-72
2024/02/20 03:34:29;;;;;;;6.70;2.50;;;;;;;;;;5060712;28;20128;-72
2024/02/20 03:36:55;;;;;;;6.50;2.85;;;;;;;;;;5069496;28;20317;-72
2024/02/20 03:39:23;;;;;;;6.05;2.47;;;;;;;;;;5059145;28;20033;-72
2024/02/20 03:41:50;;;;;;;2.97;2.78;;;;;;;;;;5068086;28;20443;-71
2024/02/20 03:44:16;;;;;;;3.65;2.67;;;;;;;;;;5058528;28;20403;-72
2024/02/20 03:46:42;;;;;;;4.45;2.45;;;;;;;;;;5063753;28;20063;-72
2024/02/20 03:49:09;;;;;;;4.35;3.03;;;;;;;;;;5067697;28;20435;-72
2024/02/20 03:51:35;;;;;;;6.78;2.67;;;;;;;;;;5058900;28;20029;-72
2024/02/20 03:54:01;;;;;;;5.82;2.22;;;;;;;;;;5066692;28;20059;-73
2024/02/20 03:56:28;;;;;;;2.53;2.28;;;;;;;;;;5065041;28;20028;-71
2024/02/20 03:58:54;;;;;;;5.70;2.72;;;;;;;;;;5062355;28;20166;-71
2024/02/20 04:01:20;;;;;;;2.97;2.35;;;;;;;;;;5061485;28;20454;-71
2024/02/20 04:03:46;;;;;;;2.83;2.15;;;;;;;;;;5065793;28;20590;-71
2024/02/20 04:06:12;;;;;;;3.25;2.22;;;;;;;;;;5061357;28;20518;-72
2024/02/20 04:08:38;;;;;;;9.00;2.70;;;;;;;;;;5063702;28;20057;-71
2024/02/20 04:11:05;;;;;;;2.63;2.42;;;;;;;;;;5062658;28;20307;-71
2024/02/20 04:13:31;;;;;;;3.03;2.25;;;;;;;;;;5056607;28;20240;-71
2024/02/20 04:15:58;;;;;;;5.72;2.50;;;;;;;;;;5062562;28;20556;-72
2024/02/20 04:18:24;;;;;;;2.00;1.80;;;;;;;;;;5063345;28;20472;-71
2024/02/20 04:20:50;;;;;;;3.63;2.30;;;;;;;;;;5064696;28;20036;-70
2024/02/20 04:23:16;;;;;;;4.13;1.98;;;;;;;;;;5065635;28;20086;-71
2024/02/20 04:25:43;;;;;;;1.80;1.70;;;;;;;;;;5063215;28;20335;-71
2024/02/20 04:28:10;;;;;;;8.18;2.33;;;;;;;;;;5061750;28;20036;-71
2024/02/20 04:30:39;;;;;;;5.68;1.90;;;;;;;;;;5066583;28;20013;-72
2024/02/20 04:33:05;;;;;;;2.97;1.90;;;;;;;;;;5051889;28;20024;-71
2024/02/20 04:35:31;;;;;;;1.75;1.65;;;;;;;;;;5065362;28;20024;-71
2024/02/20 04:37:58;;;;;;;2.25;1.80;;;;;;;;;;5057624;28;20096;-71
2024/02/20 04:40:26;;;;;;;4.45;1.98;;;;;;;;;;5062827;28;20400;-71
2024/02/20 04:42:52;;;;;;;1.85;1.70;;;;;;;;;;5060857;28;20091;-71
2024/02/20 04:45:19;;;;;;;1.58;1.50;;;;;;;;;;5060668;28;20037;-72
2024/02/20 04:47:45;;;;;;;1.50;1.40;;;;;;;;;;5062790;28;20517;-72
2024/02/20 04:50:12;;;;;;;1.42;1.33;;;;;;;;;;5063155;28;20047;-71
2024/02/20 04:52:38;;;;;;;2.78;1.73;;;;;;;;;;5061249;28;20025;-71
2024/02/20 04:55:05;;;;;;;6.55;2.33;;;;;;;;;;5063364;28;20385;-72
2024/02/20 04:57:31;;;;;;;1.50;1.40;;;;;;;;;;5059868;28;20166;-71
2024/02/20 04:59:58;;;;;;;1.77;1.60;;;;;;;;;;5062057;28;20547;-71
2024/02/20 05:02:24;;;;;;;3.92;1.80;;;;;;;;;;5061639;28;20086;-71
2024/02/20 05:04:50;;;;;;;5.55;1.90;;;;;;;;;;5060850;28;20056;-71
2024/02/20 05:07:17;;;;;;;2.58;1.80;;;;;;;;;;5062184;28;20024;-71
2024/02/20 05:09:43;;;;;;;3.13;1.83;;;;;;;;;;5060271;28;20024;-71
2024/02/20 05:12:09;;;;;;;1.60;1.50;;;;;;;;;;5065414;28;20101;-70
2024/02/20 05:14:36;;;;;;;1.63;1.52;;;;;;;;;;5066332;28;20024;-71
2024/02/20 05:17:02;;;;;;;1.50;1.40;;;;;;;;;;5063556;28;20392;-70
2024/02/20 05:19:28;;;;;;;2.58;1.50;;;;;;;;;;5066165;28;20082;-71
2024/02/20 05:21:54;;;;;;;1.45;1.35;;;;;;;;;;5064951;28;20054;-71
2024/02/20 05:24:22;;;;;;;1.20;1.20;;;;;;;;;;5059145;28;20071;-71
2024/02/20 05:26:48;;;;;;;2.25;1.60;;;;;;;;;;5063389;28;20043;-71
2024/02/20 05:29:14;;;;;;;2.25;1.45;;;;;;;;;;5051821;28;20075;-71
2024/02/20 05:31:40;;;;;;;4.95;1.83;;;;;;;;;;5059384;28;20025;-71
2024/02/20 05:34:06;;;;;;;1.52;1.42;;;;;;;;;;5072080;28;20032;-72
2024/02/20 05:36:33;;;;;;;1.88;1.23;;;;;;;;;;5054575;28;20033;-71
2024/02/20 05:39:03;;;;;;;1.50;1.42;;;;;;;;;;5075861;28;20761;-71
2024/02/20 05:41:29;;;;;;;1.60;1.50;;;;;;;;;;5068719;28;20032;-71
2024/02/20 05:43:59;;;;;;;1.85;1.60;;;;;;;;;;5059615;28;20486;-70
2024/02/20 05:46:29;;;;;;;1.40;1.30;;;;;;;;;;5062498;28;20029;-71
2024/02/20 05:48:56;;;;;;;1.42;1.33;;;;;;;;;;5052532;28;20365;-72
2024/02/20 05:51:23;;;;;;;1.45;1.35;;;;;;;;;;5063830;28;20070;-71
2024/02/20 05:53:52;;;;;;;1.60;1.50;;;;;;;;;;5061624;28;20073;-71
2024/02/20 05:56:18;;;;;;;1.52;1.42;;;;;;;;;;5062644;28;20028;-71
2024/02/20 05:58:45;;;;;;;1.48;1.38;;;;;;;;;;5064045;28;20024;-71
2024/02/20 06:01:11;;;;;;;1.52;1.42;;;;;;;;;;5063196;28;20067;-71
2024/02/20 06:03:40;;;;;;;3.80;1.90;;;;;;;;;;5061619;28;20044;-70
2024/02/20 06:06:07;;;;;;;1.92;1.60;;;;;;;;;;5061047;28;20020;-71
2024/02/20 06:08:33;;;;;;;1.70;1.60;;;;;;;;;;5063644;28;20091;-71
2024/02/20 06:11:00;;;;;;;2.42;1.60;;;;;;;;;;5064060;28;20396;-72
2024/02/20 06:13:26;;;;;;;3.88;1.70;;;;;;;;;;5056973;28;20033;-72
2024/02/20 06:15:52;;;;;;;1.75;1.40;;;;;;;;;;5063788;28;20446;-72
2024/02/20 06:18:18;;;;;;;1.80;1.70;;;;;;;;;;5062063;28;20035;-72
2024/02/20 06:20:48;;;;;;;1.83;1.52;;;;;;;;;;5055425;28;20029;-72
2024/02/20 06:23:15;;;;;;;4.45;1.75;;;;;;;;;;5060686;28;20028;-71
2024/02/20 06:25:43;;;;;;;1.63;1.52;;;;;;;;;;5063095;28;20488;-71
2024/02/20 06:28:09;;;;;;;1.58;1.48;;;;;;;;;;5068656;28;20549;-72
2024/02/20 06:30:35;;;;;;;3.13;1.50;;;;;;;;;;5059978;28;20055;-72
2024/02/20 06:33:03;;;;;;;2.35;2.25;;;;;;;;;;5061875;28;20039;-71
2024/02/20 06:35:29;;;;;;;2.60;1.67;;;;;;;;;;5059789;28;20031;-72
2024/02/20 06:37:55;;;;;;;1.80;1.70;;;;;;;;;;5058150;28;20536;-72
2024/02/20 06:40:21;;;;;;;4.60;1.63;;;;;;;;;;5064277;28;20066;-72
2024/02/20 06:42:48;;;;;;;1.63;1.52;;;;;;;;;;5055883;28;20025;-73
2024/02/20 06:45:14;;;;;;;1.55;1.45;;;;;;;;;;5067691;28;20032;-71
2024/02/20 06:47:42;;;;;;;1.10;1.10;;;;;;;;;;5057614;28;20020;-72
2024/02/20 06:50:12;;;;;;;1.55;1.48;;;;;;;;;;5060387;28;20039;-72
2024/02/20 06:52:43;;;;;;;1.33;1.23;;;;;;;;;;5052271;28;20032;-71
2024/02/20 06:55:09;;;;;;;1.50;1.40;;;;;;;;;;5057725;28;20299;-70
2024/02/20 06:57:39;;;;;;;3.47;2.50;;;;;;;;;;5065159;28;20475;-70
2024/02/20 07:00:06;;;;;;;1.45;1.35;;;;;;;;;;5062063;28;20033;-70
2024/02/20 07:02:32;;;;;;;4.10;1.55;;;;;;;;;;5060433;28;20036;-71
2024/02/20 07:04:58;;;;;;;2.70;1.30;;;;;;;;;;5065993;28;20096;-71
2024/02/20 07:07:24;;;;;;;8.45;1.52;;;;;;;;;;5060871;28;20035;-71
2024/02/20 07:09:51;;;;;;;3.53;1.40;;;;;;;;;;5053267;28;20017;-71
2024/02/20 07:12:17;;;;;;;1.02;1.02;;;;;;;;;;5060490;28;20346;-72
2024/02/20 07:14:43;;;;;;;6.82;1.73;;;;;;;;;;5051573;28;20067;-70
2024/02/20 07:17:10;;;;;;;3.90;1.45;;;;;;;;;;5058823;28;20041;-71
2024/02/20 07:19:37;;;;;;;3.05;1.75;;;;;;;;;;5065270;28;20024;-70
2024/02/20 07:22:03;;;;;;;6.90;1.92;;;;;;;;;;5055747;28;20559;-71
2024/02/20 07:24:29;;;;;;;1.33;1.27;;;;;;;;;;5061430;28;20135;-71
2024/02/20 07:26:55;;;;;;;2.67;1.40;;;;;;;;;;5057525;28;20427;-71
2024/02/20 07:29:22;;;;;;;10.68;1.85;;;;;;;;;;5054580;28;20024;-71
2024/02/20 07:31:48;;;;;;;1.70;1.35;;;;;;;;;;5055016;28;20031;-70
2024/02/20 07:34:14;;;;;;;3.05;1.60;;;;;;;;;;5063529;28;20070;-70
2024/02/20 07:36:40;;;;;;;7.20;1.65;;;;;;;;;;5062985;28;20036;-70
2024/02/20 07:39:07;;;;;;;5.82;1.95;;;;;;;;;;5048622;28;20036;-71
2024/02/20 07:41:34;;;;;;;3.20;1.80;;;;;;;;;;5066943;28;20127;-71
2024/02/20 07:44:00;;;;;;;1.98;1.58;;;;;;;;;;5052844;28;20021;-71
2024/02/20 07:46:26;;;;;;;1.20;1.20;;;;;;;;;;5052496;28;20031;-71
2024/02/20 07:48:53;;;;;;;3.17;1.95;;;;;;;;;;5080572;28;20396;-69
2024/02/20 07:51:19;;;;;;;1.90;1.80;;;;;;;;;;5061018;28;20025;-71
2024/02/20 07:53:45;;;;;;;1.67;1.58;;;;;;;;;;5059936;28;20039;-70
2024/02/20 07:56:11;;;;;;;4.15;1.33;;;;;;;;;;5062165;28;20032;-71
2024/02/20 07:58:38;;;;;;;6.43;2.05;;;;;;;;;;5062432;28;20104;-70
2024/02/20 08:01:13;;;;;;;1.52;1.42;;;;;;;;;;5062727;28;20501;-71
2024/02/20 08:03:39;;;;;;;3.25;1.60;;;;;;;;;;5067923;28;20539;-71
2024/02/20 08:06:06;;;;;;;1.63;1.52;;;;;;;;;;5064048;28;20025;-70
2024/02/20 08:08:32;;;;;;;3.00;1.58;;;;;;;;;;5060762;28;20025;-71
2024/02/20 08:10:58;;;;;;;4.10;1.70;;;;;;;;;;5066506;28;20042;-71
2024/02/20 08:13:25;;;;;;;2.17;1.60;;;;;;;;;;5050233;28;20036;-70
2024/02/20 08:15:51;;;;;;;2.00;1.90;;;;;;;;;;5064896;28;20024;-71
2024/02/20 08:18:17;;;;;;;1.77;1.35;;;;;;;;;;5049468;28;20412;-72
2024/02/20 08:20:44;;;;;;;1.40;1.30;;;;;;;;;;5064200;28;20028;-73
2024/02/20 08:23:10;;;;;;;6.93;2.38;;;;;;;;;;5061155;28;20045;-71
2024/02/20 08:25:36;;;;;;;5.65;2.20;;;;;;;;;;5051301;28;20387;-71
2024/02/20 08:28:02;;;;;;;1.45;1.38;;;;;;;;;;5056225;28;20013;-70
2024/02/20 08:30:28;;;;;;;8.20;1.98;;;;;;;;;;5062364;28;20323;-72
2024/02/20 08:32:54;;;;;;;5.13;1.52;;;;;;;;;;5062258;28;20024;-72
2024/02/20 08:35:20;;;;;;;3.05;2.20;;;;;;;;;;5062124;28;20021;-70
2024/02/20 08:37:47;;;;;;;1.90;1.63;;;;;;;;;;5060441;28;20032;-70
2024/02/20 08:40:13;;;;;;;2.70;1.42;;;;;;;;;;5054171;28;20086;-70
2024/02/20 08:42:39;;;;;;;4.40;1.80;;;;;;;;;;5058333;28;20036;-71
2024/02/20 08:45:06;;;;;;;8.35;2.35;;;;;;;;;;5055410;28;20507;-71
2024/02/20 08:47:33;;;;;;;3.85;2.00;;;;;;;;;;5065672;28;20546;-71
2024/02/20 08:49:59;;;;;;;7.20;2.05;;;;;;;;;;5057837;28;20024;-72
2024/02/20 08:52:25;;;;;;;7.82;2.75;;;;;;;;;;5060541;28;20111;-71
2024/02/20 08:54:51;;;;;;;6.10;1.75;;;;;;;;;;5056199;28;20495;-71
2024/02/20 08:57:17;;;;;;;6.15;2.28;;;;;;;;;;5056633;28;20552;-70
2024/02/20 08:59:45;;;;;;;5.15;2.22;;;;;;;;;;5055109;28;20031;-70
2024/02/20 09:02:11;;;;;;;17.38;2.53;;;;;;;;;;5058414;28;20040;-71
2024/02/20 09:04:37;;;;;;;1.60;1.50;;;;;;;;;;5062907;28;20040;-71
2024/02/20 09:07:04;;;;;;;7.88;2.15;;;;;;;;;;5064687;28;20155;-71
2024/02/20 09:09:30;;;;;;;6.15;1.80;;;;;;;;;;5063254;28;20020;-71
2024/02/20 09:11:56;;;;;;;10.30;2.30;;;;;;;;;;5078149;28;20039;-71
2024/02/20 09:14:22;;;;;;;7.80;1.98;;;;;;;;;;5051835;28;20036;-70
2024/02/20 09:16:48;;;;;;;4.32;1.70;;;;;;;;;;5060032;28;20052;-72
2024/02/20 09:19:15;;;;;;;5.72;2.25;;;;;;;;;;5053646;28;20039;-71
2024/02/20 09:21:42;;;;;;;2.60;2.10;;;;;;;;;;5054265;28;20025;-70
2024/02/20 09:24:10;;;;;;;3.03;1.80;;;;;;;;;;5061946;28;20078;-71
2024/02/20 09:26:36;;;;;;;9.00;1.77;;;;;;;;;;5060883;28;20052;-71
2024/02/20 09:29:03;;;;;;;6.68;2.10;;;;;;;;;;5050768;28;20028;-70
2024/02/20 09:31:29;;;;;;;4.57;1.80;;;;;;;;;;5051837;28;20031;-71
2024/02/20 09:33:55;;;;;;;2.85;1.85;;;;;;;;;;5061149;28;20221;-70
2024/02/20 09:36:22;;;;;;;4.45;2.00;;;;;;;;;;5054148;28;20038;-70
2024/02/20 09:38:48;;;;;;;4.55;2.03;;;;;;;;;;5056518;28;20104;-72
2024/02/20 09:41:20;;;;;;;5.97;2.28;;;;;;;;;;5066881;28;20032;-72
2024/02/20 09:43:47;;;;;;;18.98;3.10;;;;;;;;;;5059930;28;20021;-70
2024/02/20 09:46:16;;;;;;;7.20;2.83;;;;;;;;;;5061068;28;20028;-72
2024/02/20 09:48:43;;;;;;;9.75;2.83;;;;;;;;;;5049199;28;20025;-71
2024/02/20 09:51:10;;;;;;;12.80;2.72;;;;;;;;;;5058737;28;20024;-72
2024/02/20 09:53:37;;;;;;;4.18;1.95;;;;;;;;;;5062801;28;20476;-71
2024/02/20 09:56:03;;;;;;;4.72;1.88;;;;;;;;;;5062735;28;20055;-72
2024/02/20 09:58:29;;;;;;;2.72;1.77;;;;;;;;;;5057666;28;20434;-72
2024/02/20 10:00:57;;;;;;;2.78;1.85;;;;;;;;;;5059775;28;20044;-73
2024/02/20 10:03:26;;;;;;;8.60;2.50;;;;;;;;;;5051207;28;20029;-72
2024/02/20 10:05:52;;;;;;;7.15;2.10;;;;;;;;;;5062155;28;20490;-71
2024/02/20 10:08:23;;;;;;;4.82;1.80;;;;;;;;;;5054344;28;20423;-71
2024/02/20 10:10:49;;;;;;;2.03;1.90;;;;;;;;;;5053559;28;20064;-72
2024/02/20 10:13:15;;;;;;;9.15;2.50;;;;;;;;;;5052336;28;20040;-71
2024/02/20 10:15:41;;;;;;;10.50;3.85;;;;;;;;;;5083392;28;20036;-71
2024/02/20 10:18:07;;;;;;;3.67;1.92;;;;;;;;;;5047731;28;20116;-72
2024/02/20 10:20:34;;;;;;;6.38;1.92;;;;;;;;;;5058038;28;20032;-71
2024/02/20 10:23:06;;;;;;;7.38;2.70;;;;;;;;;;5056268;28;20041;-71
2024/02/20 10:25:33;;;;;;;11.35;1.88;;;;;;;;;;5054474;28;20484;-71
2024/02/20 10:27:59;;;;;;;15.10;2.83;;;;;;;;;;5058553;28;20114;-72
2024/02/20 10:30:25;;;;;;;8.57;2.38;;;;;;;;;;5055067;28;20070;-72
2024/02/20 10:32:51;;;;;;;11.73;3.28;;;;;;;;;;5057266;28;20040;-71
2024/02/20 10:35:17;;;;;;;8.00;2.33;;;;;;;;;;5065156;28;20028;-71
2024/02/20 10:37:44;;;;;;;9.00;2.70;;;;;;;;;;5058962;28;20037;-71
2024/02/20 10:40:11;;;;;;;4.50;1.83;;;;;;;;;;5068239;28;20044;-71
2024/02/20 10:42:37;;;;;;;16.27;2.33;;;;;;;;;;5056895;28;20051;-71
2024/02/20 10:45:08;;;;;;;6.82;2.78;;;;;;;;;;5063906;28;20465;-71
2024/02/20 10:47:40;;;;;;;3.65;2.38;;;;;;;;;;5054259;28;20450;-73
2024/02/20 10:50:07;;;;;;;5.45;2.20;;;;;;;;;;5062214;28;20024;-71
2024/02/20 10:52:35;;;;;;;10.40;2.50;;;;;;;;;;5066433;28;20033;-71
2024/02/20 10:55:05;;;;;;;6.93;2.05;;;;;;;;;;5059440;28;20427;-71
2024/02/20 10:57:32;;;;;;;7.25;2.08;;;;;;;;;;5051249;28;20537;-71
2024/02/20 10:59:59;;;;;;;3.75;2.10;;;;;;;;;;5060973;28;20031;-73
2024/02/20 11:02:27;;;;;;;7.90;2.58;;;;;;;;;;5063711;28;20517;-71
2024/02/20 11:04:53;;;;;;;5.78;2.13;;;;;;;;;;5057309;28;20357;-72
2024/02/20 11:07:19;;;;;;;9.60;2.35;;;;;;;;;;5064535;28;20415;-72
2024/02/20 11:10:05;;;;;;;6.53;3.53;;;;;;;;;;5051357;28;20036;-71
2024/02/20 11:12:32;;;;;;;7.43;2.25;;;;;;;;;;5069855;28;20032;-73
2024/02/20 11:15:24;;;;;;;5.85;2.42;;;;;;;;;;5048996;28;20036;-74
2024/02/20 11:17:51;;;;;;;12.00;2.75;;;;;;;;;;5053807;28;20037;-72
2024/02/20 11:20:21;;;;;;;7.03;2.20;;;;;;;;;;5061946;28;20119;-71
2024/02/20 11:22:49;;;;;;;7.55;2.70;;;;;;;;;;5060655;28;20036;-71
2024/02/20 11:25:17;;;;;;;5.32;2.35;;;;;;;;;;5052421;28;20028;-72
2024/02/20 11:27:45;;;;;;;4.68;2.53;;;;;;;;;;5068034;28;20028;-71
2024/02/20 11:30:18;;;;;;;9.50;2.75;;;;;;;;;;5064821;28;20111;-72
2024/02/20 11:32:45;;;;;;;5.88;2.85;;;;;;;;;;5066195;28;20040;-72
2024/02/20 11:35:31;;;;;;;5.57;3.08;;;;;;;;;;5063515;28;20052;-72
2024/02/20 11:37:58;;;;;;;8.35;2.30;;;;;;;;;;5059783;28;20419;-71
2024/02/20 11:40:34;;;;;;;7.97;2.85;;;;;;;;;;5063668;28;20128;-72
2024/02/20 11:43:01;;;;;;;6.85;2.67;;;;;;;;;;5065559;28;20036;-72
2024/02/20 11:45:29;;;;;;;6.68;3.83;;;;;;;;;;5058787;28;20033;-72
2024/02/20 11:48:05;;;;;;;10.45;3.50;;;;;;;;;;5050399;28;20016;-71
2024/02/20 11:50:54;;;;;;;9.60;2.85;;;;;;;;;;5052968;28;20048;-77
2024/02/20 11:53:21;;;;;;;11.95;2.50;;;;;;;;;;5054292;28;20036;-72
2024/02/20 11:55:54;;;;;;;4.20;2.33;;;;;;;;;;5062037;28;20033;-71
2024/02/20 11:58:21;;;;;;;9.38;2.45;;;;;;;;;;5059729;28;20044;-72
2024/02/20 12:00:49;;;;;;;11.80;2.55;;;;;;;;;;5050520;28;20098;-72
2024/02/20 12:03:25;;;;;;;8.38;2.60;;;;;;;;;;5056384;28;20028;-72
2024/02/20 12:05:51;;;;;;;5.28;2.35;;;;;;;;;;5067797;28;20024;-71
2024/02/20 12:08:18;;;;;;;4.75;2.58;;;;;;;;;;5057543;28;20067;-72
2024/02/20 12:10:45;;;;;;;6.05;1.85;;;;;;;;;;5068737;28;20040;-72
2024/02/20 12:13:19;;;;;;;6.97;2.72;;;;;;;;;;5064309;28;20075;-71
2024/02/20 12:15:49;;;;;;;7.68;2.05;;;;;;;;;;5059608;28;20032;-72
2024/02/20 12:18:28;;;;;;;15.13;3.17;;;;;;;;;;5063469;28;20032;-71
2024/02/20 12:21:10;;;;;;;5.80;2.05;;;;;;;;;;5058280;28;20028;-71
2024/02/20 12:23:37;;;;;;;4.78;2.15;;;;;;;;;;5048688;28;20660;-71
2024/02/20 12:26:13;;;;;;;4.57;1.75;;;;;;;;;;5063874;28;20044;-71
2024/02/20 12:28:38;;;;;;;;;;;;;;;;;;5057458;28;20029;-72
2024/02/20 12:31:05;;;;;;;5.85;2.30;;;;;;;;;;5057203;28;20007;-72
2024/02/20 12:33:32;;;;;;;6.93;2.00;;;;;;;;;;5068433;28;20082;-71
2024/02/20 12:35:59;;;;;;;3.58;2.08;;;;;;;;;;5064740;28;20040;-72
2024/02/20 12:38:26;;;;;;;2.53;2.05;;;;;;;;;;5067830;28;20044;-72
2024/02/20 12:40:52;;;;;;;4.53;2.65;;;;;;;;;;5058269;28;20403;-71
2024/02/20 12:43:19;;;;;;;1.73;1.63;;;;;;;;;;5052948;28;20021;-70
2024/02/20 12:45:45;;;;;;;7.50;1.75;;;;;;;;;;5059815;28;20025;-72
2024/02/20 12:48:11;;;;;;;3.35;2.53;;;;;;;;;;5052591;28;20557;-71
2024/02/20 12:50:38;;;;;;;9.25;2.38;;;;;;;;;;5058970;28;20055;-72
2024/02/20 12:53:05;;;;;;;4.20;2.17;;;;;;;;;;5064734;28;20029;-71
2024/02/20 12:55:34;;;;;;;1.55;1.45;;;;;;;;;;5061649;28;20035;-72
2024/02/20 12:58:01;;;;;;;6.28;2.30;;;;;;;;;;5051884;28;20527;-70
2024/02/20 13:00:28;;;;;;;3.38;2.10;;;;;;;;;;5061235;28;20037;-71
2024/02/20 13:02:57;;;;;;;2.70;1.80;;;;;;;;;;5063743;28;20035;-72
2024/02/20 13:05:26;;;;;;;6.32;1.73;;;;;;;;;;5066289;28;20020;-71
2024/02/20 13:07:59;;;;;;;2.78;1.83;;;;;;;;;;5051609;28;20028;-73
2024/02/20 13:10:26;;;;;;;2.63;1.60;;;;;;;;;;5062325;28;20516;-71
2024/02/20 13:12:53;;;;;;;3.13;1.58;;;;;;;;;;5069379;28;20302;-70
2024/02/20 13:15:19;;;;;;;1.63;1.52;;;;;;;;;;5056709;28;20060;-72
2024/02/20 13:17:45;;;;;;;1.67;1.50;;;;;;;;;;5060019;28;20025;-73
2024/02/20 13:20:12;;;;;;;4.85;1.75;;;;;;;;;;5062763;28;20404;-71
2024/02/20 13:22:38;;;;;;;3.17;1.83;;;;;;;;;;5060619;28;20109;-72
2024/02/20 13:25:05;;;;;;;2.97;1.60;;;;;;;;;;5054521;28;20030;-73
2024/02/20 13:27:32;;;;;;;6.80;1.95;;;;;;;;;;5059832;28;20028;-72
2024/02/20 13:29:59;;;;;;;1.73;1.60;;;;;;;;;;5062452;28;20028;-70
2024/02/20 13:32:25;;;;;;;7.65;3.03;;;;;;;;;;5060571;28;20373;-71
2024/02/20 13:34:51;;;;;;;6.53;2.67;;;;;;;;;;5058587;28;20531;-72
2024/02/20 13:37:17;;;;;;;2.83;2.20;;;;;;;;;;5065373;28;20519;-71
2024/02/20 13:39:44;;;;;;;3.92;2.45;;;;;;;;;;5068006;28;20479;-72
2024/02/20 13:42:10;;;;;;;3.10;1.70;;;;;;;;;;5064083;28;20033;-72
2024/02/20 13:44:37;;;;;;;5.90;1.67;;;;;;;;;;5062740;28;20499;-72
2024/02/20 13:47:03;;;;;;;6.97;1.95;;;;;;;;;;5058379;28;20424;-70
2024/02/20 13:49:29;;;;;;;4.20;1.90;;;;;;;;;;5050014;28;20404;-71
2024/02/20 13:51:55;;;;;;;8.38;2.10;;;;;;;;;;5056982;28;20085;-72
2024/02/20 13:54:25;;;;;;;3.13;1.88;;;;;;;;;;5053916;28;20021;-71
2024/02/20 13:56:51;;;;;;;3.17;1.50;;;;;;;;;;5059626;28;20056;-71
2024/02/20 13:59:18;;;;;;;4.35;1.92;;;;;;;;;;5051273;28;20395;-70
2024/02/20 14:01:44;;;;;;;1.85;1.65;;;;;;;;;;5059550;28;20036;-71
2024/02/20 14:04:10;;;;;;;3.35;2.25;;;;;;;;;;5060311;28;20037;-72
2024/02/20 14:06:36;;;;;;;1.92;1.83;;;;;;;;;;5063487;28;20055;-71
2024/02/20 14:09:04;;;;;;;4.85;3.80;;;;;;;;;;5061834;28;20019;-71
2024/02/20 14:11:33;;;;;;;3.38;1.40;;;;;;;;;;5063109;28;20053;-71
2024/02/20 14:13:59;;;;;;;3.72;1.85;;;;;;;;;;5057820;28;20791;-72
2024/02/20 14:16:26;;;;;;;3.47;1.52;;;;;;;;;;5057011;28;20039;-72
2024/02/20 14:18:52;;;;;;;2.58;1.67;;;;;;;;;;5058717;28;20502;-73
2024/02/20 14:21:18;;;;;;;1.80;1.58;;;;;;;;;;5052558;28;20040;-73
2024/02/20 14:23:44;;;;;;;1.70;1.60;;;;;;;;;;5049972;28;20528;-71
2024/02/20 14:26:12;;;;;;;2.58;2.05;;;;;;;;;;5051964;28;20028;-71
2024/02/20 14:28:39;;;;;;;4.10;3.17;;;;;;;;;;5057032;28;20029;-72
2024/02/20 14:31:06;;;;;;;1.42;1.33;;;;;;;;;;5056597;28;20476;-72
2024/02/20 14:33:32;;;;;;;3.58;2.13;;;;;;;;;;5055381;28;20033;-71
2024/02/20 14:36:00;;;;;;;3.97;1.73;;;;;;;;;;5058127;28;20016;-72
2024/02/20 14:38:26;;;;;;;1.80;1.70;;;;;;;;;;5048570;28;20127;-71
2024/02/20 14:40:52;;;;;;;3.28;1.83;;;;;;;;;;5061521;28;20021;-72